sensor_id;sensor_type;location;lat;lon;timestamp;P1;durP1;ratioP1;P2;durP2;ratioP2
68886;SDS011;55925;51.764;6.402;2023-03-30T00:00:33;7.75;;;2.90;;
68886;SDS011;55925;51.764;6.402;2023-03-30T00:02:59;6.68;;;2.83;;
68886;SDS011;55925;51.764;6.402;2023-03-30T00:05:27;7.07;;;3.30;;
68886;SDS011;55925;51.764;6.402;2023-03-30T00:07:53;8.68;;;3.13;;
68886;SDS011;55925;51.764;6.402;2023-03-30T00:10:19;7.82;;;2.80;;
68886;SDS011;55925;51.764;6.402;2023-03-30T00:12:46;6.70;;;2.53;;
68886;SDS011;55925;51.764;6.402;2023-03-30T00:15:15;7.38;;;2.85;;
68886;SDS011;55925;51.764;6.402;2023-03-30T00:17:42;8.77;;;2.90;;
68886;SDS011;55925;51.764;6.402;2023-03-30T00:20:08;6.43;;;2.97;;
68886;SDS011;55925;51.764;6.402;2023-03-30T00:22:36;7.45;;;2.95;;
68886;SDS011;55925;51.764;6.402;2023-03-30T00:25:03;8.20;;;2.53;;
68886;SDS011;55925;51.764;6.402;2023-03-30T00:27:29;8.45;;;2.70;;
68886;SDS011;55925;51.764;6.402;2023-03-30T00:29:55;6.28;;;2.67;;
68886;SDS011;55925;51.764;6.402;2023-03-30T00:32:21;8.07;;;2.35;;
68886;SDS011;55925;51.764;6.402;2023-03-30T00:34:47;7.07;;;1.90;;
68886;SDS011;55925;51.764;6.402;2023-03-30T00:37:13;6.20;;;2.30;;
68886;SDS011;55925;51.764;6.402;2023-03-30T00:39:39;6.38;;;2.05;;
68886;SDS011;55925;51.764;6.402;2023-03-30T00:42:05;6.72;;;2.10;;
68886;SDS011;55925;51.764;6.402;2023-03-30T00:47:16;7.05;;;2.05;;
68886;SDS011;55925;51.764;6.402;2023-03-30T00:49:42;5.72;;;2.42;;
68886;SDS011;55925;51.764;6.402;2023-03-30T00:52:09;6.03;;;2.20;;
68886;SDS011;55925;51.764;6.402;2023-03-30T00:54:35;5.18;;;2.30;;
68886;SDS011;55925;51.764;6.402;2023-03-30T00:57:03;5.85;;;2.42;;
68886;SDS011;55925;51.764;6.402;2023-03-30T00:59:29;7.35;;;2.33;;
68886;SDS011;55925;51.764;6.402;2023-03-30T01:01:55;6.90;;;2.13;;
68886;SDS011;55925;51.764;6.402;2023-03-30T01:04:21;6.60;;;2.50;;
68886;SDS011;55925;51.764;6.402;2023-03-30T01:06:47;8.15;;;2.70;;
68886;SDS011;55925;51.764;6.402;2023-03-30T01:09:16;7.78;;;2.33;;
68886;SDS011;55925;51.764;6.402;2023-03-30T01:11:43;14.13;;;2.65;;
68886;SDS011;55925;51.764;6.402;2023-03-30T01:14:10;7.65;;;2.95;;
68886;SDS011;55925;51.764;6.402;2023-03-30T01:29:45;5.82;;;2.17;;
68886;SDS011;55925;51.764;6.402;2023-03-30T01:40:14;7.65;;;3.70;;
68886;SDS011;55925;51.764;6.402;2023-03-30T01:42:57;7.72;;;2.47;;
68886;SDS011;55925;51.764;6.402;2023-03-30T01:48:00;8.93;;;2.72;;
68886;SDS011;55925;51.764;6.402;2023-03-30T01:50:36;5.78;;;2.42;;
68886;SDS011;55925;51.764;6.402;2023-03-30T01:53:08;4.75;;;2.35;;
68886;SDS011;55925;51.764;6.402;2023-03-30T01:58:05;9.07;;;3.10;;
68886;SDS011;55925;51.764;6.402;2023-03-30T02:00:32;5.68;;;2.15;;
68886;SDS011;55925;51.764;6.402;2023-03-30T02:03:02;6.75;;;2.53;;
68886;SDS011;55925;51.764;6.402;2023-03-30T02:05:30;8.55;;;2.65;;
68886;SDS011;55925;51.764;6.402;2023-03-30T02:07:59;8.65;;;2.70;;
68886;SDS011;55925;51.764;6.402;2023-03-30T02:10:27;7.68;;;2.60;;
68886;SDS011;55925;51.764;6.402;2023-03-30T02:12:54;8.70;;;3.03;;
68886;SDS011;55925;51.764;6.402;2023-03-30T02:15:21;6.40;;;2.33;;
68886;SDS011;55925;51.764;6.402;2023-03-30T02:17:48;5.28;;;2.10;;
68886;SDS011;55925;51.764;6.402;2023-03-30T02:20:14;7.00;;;2.70;;
68886;SDS011;55925;51.764;6.402;2023-03-30T02:22:41;6.47;;;2.40;;
68886;SDS011;55925;51.764;6.402;2023-03-30T02:25:08;7.13;;;2.75;;
68886;SDS011;55925;51.764;6.402;2023-03-30T02:27:34;8.60;;;2.20;;
68886;SDS011;55925;51.764;6.402;2023-03-30T02:30:02;5.18;;;2.42;;
68886;SDS011;55925;51.764;6.402;2023-03-30T02:32:31;5.22;;;2.10;;
68886;SDS011;55925;51.764;6.402;2023-03-30T02:35:13;6.57;;;2.00;;
68886;SDS011;55925;51.764;6.402;2023-03-30T02:40:42;4.60;;;1.85;;
68886;SDS011;55925;51.764;6.402;2023-03-30T02:43:25;7.50;;;2.22;;
68886;SDS011;55925;51.764;6.402;2023-03-30T02:53:54;9.23;;;2.30;;
68886;SDS011;55925;51.764;6.402;2023-03-30T02:58:48;4.97;;;2.15;;
68886;SDS011;55925;51.764;6.402;2023-03-30T03:01:26;6.18;;;2.28;;
68886;SDS011;55925;51.764;6.402;2023-03-30T03:03:53;6.45;;;2.33;;
68886;SDS011;55925;51.764;6.402;2023-03-30T03:06:22;5.38;;;2.17;;
68886;SDS011;55925;51.764;6.402;2023-03-30T03:08:48;7.68;;;2.28;;
68886;SDS011;55925;51.764;6.402;2023-03-30T03:11:14;5.60;;;2.33;;
68886;SDS011;55925;51.764;6.402;2023-03-30T03:13:41;5.65;;;2.38;;
68886;SDS011;55925;51.764;6.402;2023-03-30T03:16:08;6.05;;;1.88;;
68886;SDS011;55925;51.764;6.402;2023-03-30T03:18:37;6.93;;;1.65;;
68886;SDS011;55925;51.764;6.402;2023-03-30T03:21:05;5.78;;;1.92;;
68886;SDS011;55925;51.764;6.402;2023-03-30T03:23:32;7.47;;;2.08;;
68886;SDS011;55925;51.764;6.402;2023-03-30T03:25:58;8.50;;;2.00;;
68886;SDS011;55925;51.764;6.402;2023-03-30T03:28:25;6.43;;;1.80;;
68886;SDS011;55925;51.764;6.402;2023-03-30T03:30:51;4.97;;;1.90;;
68886;SDS011;55925;51.764;6.402;2023-03-30T03:33:18;7.72;;;1.83;;
68886;SDS011;55925;51.764;6.402;2023-03-30T03:35:44;6.60;;;1.92;;
68886;SDS011;55925;51.764;6.402;2023-03-30T03:38:11;7.57;;;2.10;;
68886;SDS011;55925;51.764;6.402;2023-03-30T03:40:37;4.20;;;1.50;;
68886;SDS011;55925;51.764;6.402;2023-03-30T03:43:03;5.75;;;1.70;;
68886;SDS011;55925;51.764;6.402;2023-03-30T03:45:29;6.13;;;2.10;;
68886;SDS011;55925;51.764;6.402;2023-03-30T03:47:55;6.55;;;2.78;;
68886;SDS011;55925;51.764;6.402;2023-03-30T03:50:21;7.35;;;1.50;;
68886;SDS011;55925;51.764;6.402;2023-03-30T03:52:47;8.38;;;2.35;;
68886;SDS011;55925;51.764;6.402;2023-03-30T03:55:13;4.82;;;1.73;;
68886;SDS011;55925;51.764;6.402;2023-03-30T03:57:39;4.65;;;1.67;;
68886;SDS011;55925;51.764;6.402;2023-03-30T04:00:06;5.25;;;1.58;;
68886;SDS011;55925;51.764;6.402;2023-03-30T04:02:40;6.88;;;1.77;;
68886;SDS011;55925;51.764;6.402;2023-03-30T04:05:06;6.60;;;1.75;;
68886;SDS011;55925;51.764;6.402;2023-03-30T04:07:33;4.43;;;1.70;;
68886;SDS011;55925;51.764;6.402;2023-03-30T04:10:01;4.47;;;1.50;;
68886;SDS011;55925;51.764;6.402;2023-03-30T04:12:28;4.28;;;1.48;;
68886;SDS011;55925;51.764;6.402;2023-03-30T04:14:54;7.22;;;1.60;;
68886;SDS011;55925;51.764;6.402;2023-03-30T04:17:20;5.10;;;1.80;;
68886;SDS011;55925;51.764;6.402;2023-03-30T04:19:47;4.43;;;1.70;;
68886;SDS011;55925;51.764;6.402;2023-03-30T04:22:17;4.50;;;1.40;;
68886;SDS011;55925;51.764;6.402;2023-03-30T04:24:43;5.55;;;1.85;;
68886;SDS011;55925;51.764;6.402;2023-03-30T04:27:10;5.90;;;1.65;;
68886;SDS011;55925;51.764;6.402;2023-03-30T04:29:38;5.78;;;1.80;;
68886;SDS011;55925;51.764;6.402;2023-03-30T04:32:05;8.48;;;2.05;;
68886;SDS011;55925;51.764;6.402;2023-03-30T04:34:31;5.60;;;1.98;;
68886;SDS011;55925;51.764;6.402;2023-03-30T04:36:57;6.13;;;1.80;;
68886;SDS011;55925;51.764;6.402;2023-03-30T04:39:23;3.70;;;1.73;;
68886;SDS011;55925;51.764;6.402;2023-03-30T04:41:54;4.65;;;1.80;;
68886;SDS011;55925;51.764;6.402;2023-03-30T04:44:20;8.80;;;2.15;;
68886;SDS011;55925;51.764;6.402;2023-03-30T04:46:46;5.47;;;2.08;;
68886;SDS011;55925;51.764;6.402;2023-03-30T04:49:12;6.47;;;1.98;;
68886;SDS011;55925;51.764;6.402;2023-03-30T04:51:38;4.93;;;1.77;;
68886;SDS011;55925;51.764;6.402;2023-03-30T04:54:06;6.65;;;2.72;;
68886;SDS011;55925;51.764;6.402;2023-03-30T04:56:32;7.00;;;1.65;;
68886;SDS011;55925;51.764;6.402;2023-03-30T04:58:58;5.90;;;1.98;;
68886;SDS011;55925;51.764;6.402;2023-03-30T05:01:24;4.97;;;1.90;;
68886;SDS011;55925;51.764;6.402;2023-03-30T05:03:50;6.13;;;1.80;;
68886;SDS011;55925;51.764;6.402;2023-03-30T05:06:16;9.77;;;2.17;;
68886;SDS011;55925;51.764;6.402;2023-03-30T05:08:42;4.47;;;1.83;;
68886;SDS011;55925;51.764;6.402;2023-03-30T05:11:08;7.57;;;2.00;;
68886;SDS011;55925;51.764;6.402;2023-03-30T05:13:35;6.93;;;1.98;;
68886;SDS011;55925;51.764;6.402;2023-03-30T05:16:01;7.68;;;1.92;;
68886;SDS011;55925;51.764;6.402;2023-03-30T05:18:27;6.70;;;1.70;;
68886;SDS011;55925;51.764;6.402;2023-03-30T05:20:56;4.25;;;1.83;;
68886;SDS011;55925;51.764;6.402;2023-03-30T05:23:22;9.18;;;2.00;;
68886;SDS011;55925;51.764;6.402;2023-03-30T05:25:49;6.75;;;2.40;;
68886;SDS011;55925;51.764;6.402;2023-03-30T05:28:15;4.50;;;1.75;;
68886;SDS011;55925;51.764;6.402;2023-03-30T05:30:41;5.63;;;2.22;;
68886;SDS011;55925;51.764;6.402;2023-03-30T05:33:08;6.72;;;1.90;;
68886;SDS011;55925;51.764;6.402;2023-03-30T05:35:37;4.63;;;1.90;;
68886;SDS011;55925;51.764;6.402;2023-03-30T05:38:03;5.15;;;1.80;;
68886;SDS011;55925;51.764;6.402;2023-03-30T05:40:31;6.13;;;1.52;;
68886;SDS011;55925;51.764;6.402;2023-03-30T05:42:57;5.90;;;1.80;;
68886;SDS011;55925;51.764;6.402;2023-03-30T05:45:23;5.90;;;1.85;;
68886;SDS011;55925;51.764;6.402;2023-03-30T05:47:51;5.00;;;1.88;;
68886;SDS011;55925;51.764;6.402;2023-03-30T05:50:17;6.93;;;2.10;;
68886;SDS011;55925;51.764;6.402;2023-03-30T05:52:43;6.75;;;1.63;;
68886;SDS011;55925;51.764;6.402;2023-03-30T05:55:09;6.25;;;2.20;;
68886;SDS011;55925;51.764;6.402;2023-03-30T05:57:36;5.85;;;1.90;;
68886;SDS011;55925;51.764;6.402;2023-03-30T06:00:02;5.35;;;1.88;;
68886;SDS011;55925;51.764;6.402;2023-03-30T06:02:31;4.68;;;1.48;;
68886;SDS011;55925;51.764;6.402;2023-03-30T06:04:57;8.18;;;2.05;;
68886;SDS011;55925;51.764;6.402;2023-03-30T06:07:25;7.28;;;1.92;;
68886;SDS011;55925;51.764;6.402;2023-03-30T06:09:51;6.05;;;1.67;;
68886;SDS011;55925;51.764;6.402;2023-03-30T06:12:18;5.82;;;1.85;;
68886;SDS011;55925;51.764;6.402;2023-03-30T06:14:44;8.05;;;1.80;;
68886;SDS011;55925;51.764;6.402;2023-03-30T06:17:10;7.38;;;1.92;;
68886;SDS011;55925;51.764;6.402;2023-03-30T06:19:39;5.15;;;1.67;;
68886;SDS011;55925;51.764;6.402;2023-03-30T06:22:06;6.20;;;1.88;;
68886;SDS011;55925;51.764;6.402;2023-03-30T06:24:32;5.07;;;2.67;;
68886;SDS011;55925;51.764;6.402;2023-03-30T06:26:58;6.88;;;2.20;;
68886;SDS011;55925;51.764;6.402;2023-03-30T06:29:25;9.18;;;2.25;;
68886;SDS011;55925;51.764;6.402;2023-03-30T06:31:51;5.97;;;2.10;;
68886;SDS011;55925;51.764;6.402;2023-03-30T06:34:17;7.47;;;2.35;;
68886;SDS011;55925;51.764;6.402;2023-03-30T06:36:44;6.03;;;2.30;;
68886;SDS011;55925;51.764;6.402;2023-03-30T06:39:10;7.93;;;2.55;;
68886;SDS011;55925;51.764;6.402;2023-03-30T06:41:37;8.07;;;2.60;;
68886;SDS011;55925;51.764;6.402;2023-03-30T06:44:03;5.78;;;2.10;;
68886;SDS011;55925;51.764;6.402;2023-03-30T06:46:29;6.78;;;3.17;;
68886;SDS011;55925;51.764;6.402;2023-03-30T06:48:55;5.95;;;3.25;;
68886;SDS011;55925;51.764;6.402;2023-03-30T06:51:21;6.32;;;2.63;;
68886;SDS011;55925;51.764;6.402;2023-03-30T06:53:47;4.38;;;2.17;;
68886;SDS011;55925;51.764;6.402;2023-03-30T06:56:13;5.47;;;2.05;;
68886;SDS011;55925;51.764;6.402;2023-03-30T06:58:39;9.73;;;2.70;;
68886;SDS011;55925;51.764;6.402;2023-03-30T07:01:12;9.82;;;2.50;;
68886;SDS011;55925;51.764;6.402;2023-03-30T07:03:38;8.10;;;2.38;;
68886;SDS011;55925;51.764;6.402;2023-03-30T07:06:05;7.13;;;4.28;;
68886;SDS011;55925;51.764;6.402;2023-03-30T07:08:31;8.98;;;3.30;;
68886;SDS011;55925;51.764;6.402;2023-03-30T07:10:58;10.63;;;3.30;;
68886;SDS011;55925;51.764;6.402;2023-03-30T07:13:24;11.43;;;3.92;;
68886;SDS011;55925;51.764;6.402;2023-03-30T07:15:50;8.00;;;3.58;;
68886;SDS011;55925;51.764;6.402;2023-03-30T07:18:16;9.00;;;3.22;;
68886;SDS011;55925;51.764;6.402;2023-03-30T07:20:43;10.00;;;3.30;;
68886;SDS011;55925;51.764;6.402;2023-03-30T07:23:09;9.20;;;3.70;;
68886;SDS011;55925;51.764;6.402;2023-03-30T07:25:36;9.57;;;3.10;;
68886;SDS011;55925;51.764;6.402;2023-03-30T07:28:02;8.80;;;3.78;;
68886;SDS011;55925;51.764;6.402;2023-03-30T07:30:30;11.52;;;3.90;;
68886;SDS011;55925;51.764;6.402;2023-03-30T07:32:56;12.10;;;2.88;;
68886;SDS011;55925;51.764;6.402;2023-03-30T07:35:22;8.70;;;3.40;;
68886;SDS011;55925;51.764;6.402;2023-03-30T07:37:48;7.20;;;3.13;;
68886;SDS011;55925;51.764;6.402;2023-03-30T07:40:14;6.95;;;2.72;;
68886;SDS011;55925;51.764;6.402;2023-03-30T07:42:41;8.40;;;2.67;;
68886;SDS011;55925;51.764;6.402;2023-03-30T07:45:07;8.23;;;2.75;;
68886;SDS011;55925;51.764;6.402;2023-03-30T07:47:33;10.50;;;2.28;;
68886;SDS011;55925;51.764;6.402;2023-03-30T07:50:00;6.25;;;2.53;;
68886;SDS011;55925;51.764;6.402;2023-03-30T07:52:26;9.88;;;2.55;;
68886;SDS011;55925;51.764;6.402;2023-03-30T07:54:52;10.68;;;2.67;;
68886;SDS011;55925;51.764;6.402;2023-03-30T07:57:21;9.98;;;2.85;;
68886;SDS011;55925;51.764;6.402;2023-03-30T07:59:47;7.35;;;2.42;;
68886;SDS011;55925;51.764;6.402;2023-03-30T08:02:13;8.82;;;2.47;;
68886;SDS011;55925;51.764;6.402;2023-03-30T08:04:39;9.75;;;2.45;;
68886;SDS011;55925;51.764;6.402;2023-03-30T08:07:06;8.05;;;2.33;;
68886;SDS011;55925;51.764;6.402;2023-03-30T08:09:33;8.80;;;2.20;;
68886;SDS011;55925;51.764;6.402;2023-03-30T08:12:00;12.10;;;2.45;;
68886;SDS011;55925;51.764;6.402;2023-03-30T08:14:26;8.32;;;2.08;;
68886;SDS011;55925;51.764;6.402;2023-03-30T08:16:53;10.43;;;2.58;;
68886;SDS011;55925;51.764;6.402;2023-03-30T08:19:19;7.97;;;1.90;;
68886;SDS011;55925;51.764;6.402;2023-03-30T08:21:46;6.13;;;1.65;;
68886;SDS011;55925;51.764;6.402;2023-03-30T08:24:12;7.15;;;1.98;;
68886;SDS011;55925;51.764;6.402;2023-03-30T08:26:38;7.05;;;1.80;;
68886;SDS011;55925;51.764;6.402;2023-03-30T08:29:04;7.68;;;2.05;;
68886;SDS011;55925;51.764;6.402;2023-03-30T08:31:31;9.57;;;2.45;;
68886;SDS011;55925;51.764;6.402;2023-03-30T08:33:58;7.80;;;2.10;;
68886;SDS011;55925;51.764;6.402;2023-03-30T08:36:24;8.82;;;2.10;;
68886;SDS011;55925;51.764;6.402;2023-03-30T08:38:50;8.48;;;2.10;;
68886;SDS011;55925;51.764;6.402;2023-03-30T08:43:57;9.48;;;2.20;;
68886;SDS011;55925;51.764;6.402;2023-03-30T08:46:25;8.38;;;2.10;;
68886;SDS011;55925;51.764;6.402;2023-03-30T08:48:51;10.52;;;2.38;;
68886;SDS011;55925;51.764;6.402;2023-03-30T08:51:21;9.18;;;2.28;;
68886;SDS011;55925;51.764;6.402;2023-03-30T08:53:49;8.20;;;2.20;;
68886;SDS011;55925;51.764;6.402;2023-03-30T08:56:18;9.18;;;2.72;;
68886;SDS011;55925;51.764;6.402;2023-03-30T09:06:42;11.63;;;2.53;;
68886;SDS011;55925;51.764;6.402;2023-03-30T09:09:12;11.75;;;3.40;;
68886;SDS011;55925;51.764;6.402;2023-03-30T09:11:39;11.15;;;2.78;;
68886;SDS011;55925;51.764;6.402;2023-03-30T09:14:06;12.35;;;3.20;;
68886;SDS011;55925;51.764;6.402;2023-03-30T09:16:41;12.15;;;3.70;;
68886;SDS011;55925;51.764;6.402;2023-03-30T09:19:12;12.07;;;3.05;;
68886;SDS011;55925;51.764;6.402;2023-03-30T09:21:39;8.70;;;2.78;;
68886;SDS011;55925;51.764;6.402;2023-03-30T09:24:10;10.45;;;3.20;;
68886;SDS011;55925;51.764;6.402;2023-03-30T09:26:51;10.60;;;2.90;;
68886;SDS011;55925;51.764;6.402;2023-03-30T09:29:20;14.13;;;3.53;;
68886;SDS011;55925;51.764;6.402;2023-03-30T09:32:12;9.25;;;2.75;;
68886;SDS011;55925;51.764;6.402;2023-03-30T09:34:46;8.75;;;2.72;;
68886;SDS011;55925;51.764;6.402;2023-03-30T09:37:16;15.32;;;3.20;;
68886;SDS011;55925;51.764;6.402;2023-03-30T09:39:43;10.55;;;2.53;;
68886;SDS011;55925;51.764;6.402;2023-03-30T09:45:00;7.05;;;2.58;;
68886;SDS011;55925;51.764;6.402;2023-03-30T09:47:35;9.02;;;2.53;;
68886;SDS011;55925;51.764;6.402;2023-03-30T09:50:08;9.55;;;2.78;;
68886;SDS011;55925;51.764;6.402;2023-03-30T09:52:39;11.38;;;2.83;;
68886;SDS011;55925;51.764;6.402;2023-03-30T09:57:47;9.50;;;2.50;;
68886;SDS011;55925;51.764;6.402;2023-03-30T10:02:53;9.60;;;2.50;;
68886;SDS011;55925;51.764;6.402;2023-03-30T10:05:20;7.20;;;2.45;;
68886;SDS011;55925;51.764;6.402;2023-03-30T10:07:51;8.07;;;2.20;;
68886;SDS011;55925;51.764;6.402;2023-03-30T10:10:36;11.63;;;2.60;;
68886;SDS011;55925;51.764;6.402;2023-03-30T10:13:14;7.30;;;2.35;;
68886;SDS011;55925;51.764;6.402;2023-03-30T10:15:42;9.05;;;2.60;;
68886;SDS011;55925;51.764;6.402;2023-03-30T10:20:41;7.97;;;2.50;;
68886;SDS011;55925;51.764;6.402;2023-03-30T10:23:16;8.93;;;2.53;;
68886;SDS011;55925;51.764;6.402;2023-03-30T10:25:43;8.80;;;2.92;;
68886;SDS011;55925;51.764;6.402;2023-03-30T10:28:25;10.77;;;2.42;;
68886;SDS011;55925;51.764;6.402;2023-03-30T10:31:02;13.45;;;2.42;;
68886;SDS011;55925;51.764;6.402;2023-03-30T10:33:29;10.13;;;3.03;;
68886;SDS011;55925;51.764;6.402;2023-03-30T10:35:56;12.13;;;3.10;;
68886;SDS011;55925;51.764;6.402;2023-03-30T10:40:54;13.30;;;2.95;;
68886;SDS011;55925;51.764;6.402;2023-03-30T10:43:27;12.68;;;3.67;;
68886;SDS011;55925;51.764;6.402;2023-03-30T10:45:56;8.98;;;2.85;;
68886;SDS011;55925;51.764;6.402;2023-03-30T10:48:28;10.45;;;3.05;;
68886;SDS011;55925;51.764;6.402;2023-03-30T10:51:06;11.85;;;2.70;;
68886;SDS011;55925;51.764;6.402;2023-03-30T10:56:03;12.73;;;3.78;;
68886;SDS011;55925;51.764;6.402;2023-03-30T11:01:07;14.77;;;3.47;;
68886;SDS011;55925;51.764;6.402;2023-03-30T11:03:35;13.40;;;2.75;;
68886;SDS011;55925;51.764;6.402;2023-03-30T11:06:06;8.30;;;2.38;;
68886;SDS011;55925;51.764;6.402;2023-03-30T11:08:38;13.07;;;2.90;;
68886;SDS011;55925;51.764;6.402;2023-03-30T11:11:05;11.38;;;3.45;;
68886;SDS011;55925;51.764;6.402;2023-03-30T11:13:35;11.05;;;3.17;;
68886;SDS011;55925;51.764;6.402;2023-03-30T11:16:07;11.02;;;3.00;;
68886;SDS011;55925;51.764;6.402;2023-03-30T11:21:14;8.82;;;2.72;;
68886;SDS011;55925;51.764;6.402;2023-03-30T11:23:55;16.38;;;3.53;;
68886;SDS011;55925;51.764;6.402;2023-03-30T11:26:37;13.93;;;3.08;;
68886;SDS011;55925;51.764;6.402;2023-03-30T11:32:23;13.68;;;3.28;;
68886;SDS011;55925;51.764;6.402;2023-03-30T11:37:17;11.77;;;3.40;;
68886;SDS011;55925;51.764;6.402;2023-03-30T11:39:47;11.73;;;3.30;;
68886;SDS011;55925;51.764;6.402;2023-03-30T11:42:16;12.02;;;2.60;;
68886;SDS011;55925;51.764;6.402;2023-03-30T11:44:45;10.52;;;2.92;;
68886;SDS011;55925;51.764;6.402;2023-03-30T11:47:25;10.70;;;2.97;;
68886;SDS011;55925;51.764;6.402;2023-03-30T11:53:10;8.50;;;2.35;;
68886;SDS011;55925;51.764;6.402;2023-03-30T12:05:36;14.70;;;3.40;;
68886;SDS011;55925;51.764;6.402;2023-03-30T12:10:50;12.90;;;3.10;;
68886;SDS011;55925;51.764;6.402;2023-03-30T12:13:17;16.27;;;3.95;;
68886;SDS011;55925;51.764;6.402;2023-03-30T12:18:36;16.20;;;2.92;;
68886;SDS011;55925;51.764;6.402;2023-03-30T12:23:56;14.23;;;2.85;;
68886;SDS011;55925;51.764;6.402;2023-03-30T12:31:18;12.80;;;3.10;;
68886;SDS011;55925;51.764;6.402;2023-03-30T12:36:21;10.40;;;3.28;;
68886;SDS011;55925;51.764;6.402;2023-03-30T12:38:50;10.63;;;3.17;;
68886;SDS011;55925;51.764;6.402;2023-03-30T12:41:16;12.60;;;3.13;;
68886;SDS011;55925;51.764;6.402;2023-03-30T12:46:23;13.65;;;3.25;;
68886;SDS011;55925;51.764;6.402;2023-03-30T13:04:15;7.68;;;2.40;;
68886;SDS011;55925;51.764;6.402;2023-03-30T13:06:47;11.13;;;3.13;;
68886;SDS011;55925;51.764;6.402;2023-03-30T13:11:43;13.48;;;2.58;;
68886;SDS011;55925;51.764;6.402;2023-03-30T13:17:15;9.98;;;2.90;;
68886;SDS011;55925;51.764;6.402;2023-03-30T13:19:45;9.05;;;2.47;;
68886;SDS011;55925;51.764;6.402;2023-03-30T13:29:39;9.18;;;2.10;;
68886;SDS011;55925;51.764;6.402;2023-03-30T13:32:40;14.18;;;2.92;;
68886;SDS011;55925;51.764;6.402;2023-03-30T13:42:48;14.07;;;2.83;;
68886;SDS011;55925;51.764;6.402;2023-03-30T13:45:20;8.73;;;2.58;;
68886;SDS011;55925;51.764;6.402;2023-03-30T13:50:36;12.27;;;2.60;;
68886;SDS011;55925;51.764;6.402;2023-03-30T13:53:06;12.48;;;2.63;;
68886;SDS011;55925;51.764;6.402;2023-03-30T13:55:34;11.15;;;2.47;;
68886;SDS011;55925;51.764;6.402;2023-03-30T14:03:32;8.52;;;2.40;;
68886;SDS011;55925;51.764;6.402;2023-03-30T14:06:15;8.90;;;1.95;;
68886;SDS011;55925;51.764;6.402;2023-03-30T14:08:45;9.30;;;2.38;;
68886;SDS011;55925;51.764;6.402;2023-03-30T14:11:22;11.25;;;2.47;;
68886;SDS011;55925;51.764;6.402;2023-03-30T14:13:49;10.98;;;2.30;;
68886;SDS011;55925;51.764;6.402;2023-03-30T14:16:26;8.98;;;1.95;;
68886;SDS011;55925;51.764;6.402;2023-03-30T14:19:01;8.00;;;1.92;;
68886;SDS011;55925;51.764;6.402;2023-03-30T14:21:28;10.73;;;2.30;;
68886;SDS011;55925;51.764;6.402;2023-03-30T14:23:54;11.43;;;2.42;;
68886;SDS011;55925;51.764;6.402;2023-03-30T14:26:24;10.70;;;2.15;;
68886;SDS011;55925;51.764;6.402;2023-03-30T14:28:57;11.48;;;2.72;;
68886;SDS011;55925;51.764;6.402;2023-03-30T14:31:24;11.27;;;2.53;;
68886;SDS011;55925;51.764;6.402;2023-03-30T14:33:53;9.55;;;2.42;;
68886;SDS011;55925;51.764;6.402;2023-03-30T14:36:19;10.80;;;2.60;;
68886;SDS011;55925;51.764;6.402;2023-03-30T14:38:47;10.27;;;2.67;;
68886;SDS011;55925;51.764;6.402;2023-03-30T14:41:18;13.00;;;3.15;;
68886;SDS011;55925;51.764;6.402;2023-03-30T14:43:49;13.35;;;2.50;;
68886;SDS011;55925;51.764;6.402;2023-03-30T14:46:16;11.23;;;2.47;;
68886;SDS011;55925;51.764;6.402;2023-03-30T14:48:43;12.23;;;2.40;;
68886;SDS011;55925;51.764;6.402;2023-03-30T14:51:58;9.25;;;2.45;;
68886;SDS011;55925;51.764;6.402;2023-03-30T14:53:57;10.23;;;2.50;;
68886;SDS011;55925;51.764;6.402;2023-03-30T14:56:23;6.85;;;2.20;;
68886;SDS011;55925;51.764;6.402;2023-03-30T14:58:49;10.88;;;2.40;;
68886;SDS011;55925;51.764;6.402;2023-03-30T15:01:17;8.13;;;1.58;;
68886;SDS011;55925;51.764;6.402;2023-03-30T15:03:44;8.60;;;1.38;;
68886;SDS011;55925;51.764;6.402;2023-03-30T15:06:13;8.25;;;1.88;;
68886;SDS011;55925;51.764;6.402;2023-03-30T15:08:42;6.82;;;1.40;;
68886;SDS011;55925;51.764;6.402;2023-03-30T15:11:20;8.02;;;1.60;;
68886;SDS011;55925;51.764;6.402;2023-03-30T15:13:48;7.13;;;1.65;;
68886;SDS011;55925;51.764;6.402;2023-03-30T15:16:22;6.90;;;1.75;;
68886;SDS011;55925;51.764;6.402;2023-03-30T15:18:51;9.48;;;1.88;;
68886;SDS011;55925;51.764;6.402;2023-03-30T15:21:17;7.63;;;1.80;;
68886;SDS011;55925;51.764;6.402;2023-03-30T15:23:44;7.20;;;1.50;;
68886;SDS011;55925;51.764;6.402;2023-03-30T15:26:11;8.48;;;1.80;;
68886;SDS011;55925;51.764;6.402;2023-03-30T15:28:48;7.85;;;2.17;;
68886;SDS011;55925;51.764;6.402;2023-03-30T15:31:15;8.23;;;2.10;;
68886;SDS011;55925;51.764;6.402;2023-03-30T15:33:44;8.35;;;2.33;;
68886;SDS011;55925;51.764;6.402;2023-03-30T15:36:12;12.55;;;2.58;;
68886;SDS011;55925;51.764;6.402;2023-03-30T15:38:43;7.63;;;2.58;;
68886;SDS011;55925;51.764;6.402;2023-03-30T15:41:14;9.93;;;3.05;;
68886;SDS011;55925;51.764;6.402;2023-03-30T15:43:58;8.45;;;2.25;;
68886;SDS011;55925;51.764;6.402;2023-03-30T15:46:24;10.10;;;2.22;;
68886;SDS011;55925;51.764;6.402;2023-03-30T15:48:52;11.07;;;3.05;;
68886;SDS011;55925;51.764;6.402;2023-03-30T15:51:20;10.25;;;2.90;;
68886;SDS011;55925;51.764;6.402;2023-03-30T15:59:10;8.20;;;2.17;;
68886;SDS011;55925;51.764;6.402;2023-03-30T16:01:51;10.55;;;2.30;;
68886;SDS011;55925;51.764;6.402;2023-03-30T16:04:19;8.20;;;2.25;;
68886;SDS011;55925;51.764;6.402;2023-03-30T16:06:45;9.50;;;1.85;;
68886;SDS011;55925;51.764;6.402;2023-03-30T16:09:11;12.43;;;2.47;;
68886;SDS011;55925;51.764;6.402;2023-03-30T16:11:37;8.77;;;2.47;;
68886;SDS011;55925;51.764;6.402;2023-03-30T16:14:04;8.38;;;2.70;;
68886;SDS011;55925;51.764;6.402;2023-03-30T16:16:32;8.85;;;3.20;;
68886;SDS011;55925;51.764;6.402;2023-03-30T16:18:58;9.63;;;2.50;;
68886;SDS011;55925;51.764;6.402;2023-03-30T16:21:24;10.00;;;2.70;;
68886;SDS011;55925;51.764;6.402;2023-03-30T16:23:50;10.88;;;3.80;;
68886;SDS011;55925;51.764;6.402;2023-03-30T16:26:16;8.90;;;2.70;;
68886;SDS011;55925;51.764;6.402;2023-03-30T16:28:42;7.72;;;2.70;;
68886;SDS011;55925;51.764;6.402;2023-03-30T16:31:13;14.18;;;3.47;;
68886;SDS011;55925;51.764;6.402;2023-03-30T16:33:41;9.05;;;3.00;;
68886;SDS011;55925;51.764;6.402;2023-03-30T16:36:10;11.02;;;2.80;;
68886;SDS011;55925;51.764;6.402;2023-03-30T16:38:37;9.35;;;2.40;;
68886;SDS011;55925;51.764;6.402;2023-03-30T16:41:03;11.02;;;2.78;;
68886;SDS011;55925;51.764;6.402;2023-03-30T16:43:29;12.73;;;2.85;;
68886;SDS011;55925;51.764;6.402;2023-03-30T16:45:55;11.35;;;2.92;;
68886;SDS011;55925;51.764;6.402;2023-03-30T16:48:21;12.15;;;2.88;;
68886;SDS011;55925;51.764;6.402;2023-03-30T16:50:49;12.95;;;2.88;;
68886;SDS011;55925;51.764;6.402;2023-03-30T16:53:16;10.93;;;3.22;;
68886;SDS011;55925;51.764;6.402;2023-03-30T16:55:42;8.13;;;2.30;;
68886;SDS011;55925;51.764;6.402;2023-03-30T16:58:10;10.63;;;2.40;;
68886;SDS011;55925;51.764;6.402;2023-03-30T17:00:42;9.85;;;2.30;;
68886;SDS011;55925;51.764;6.402;2023-03-30T17:03:08;11.40;;;2.40;;
68886;SDS011;55925;51.764;6.402;2023-03-30T17:05:34;11.50;;;2.55;;
68886;SDS011;55925;51.764;6.402;2023-03-30T17:08:12;9.40;;;2.28;;
68886;SDS011;55925;51.764;6.402;2023-03-30T17:10:39;11.18;;;2.42;;
68886;SDS011;55925;51.764;6.402;2023-03-30T17:13:05;9.07;;;2.67;;
68886;SDS011;55925;51.764;6.402;2023-03-30T17:15:32;9.82;;;1.95;;
68886;SDS011;55925;51.764;6.402;2023-03-30T17:18:02;8.27;;;1.73;;
68886;SDS011;55925;51.764;6.402;2023-03-30T17:20:34;11.07;;;2.70;;
68886;SDS011;55925;51.764;6.402;2023-03-30T17:23:01;6.25;;;1.88;;
68886;SDS011;55925;51.764;6.402;2023-03-30T17:25:27;11.52;;;2.92;;
68886;SDS011;55925;51.764;6.402;2023-03-30T17:27:53;8.70;;;2.00;;
68886;SDS011;55925;51.764;6.402;2023-03-30T17:30:23;9.48;;;2.03;;